Terminal Aerodrome Forecast
Issued by NWS

Home | Current Version | Previous Version | Text Only | Print | Product List | Glossary On
Versions: 1 2 3 4 5 6 7 8 9 10 11 12 13 14 15 16 17 18 19 20 21 22
000
FTUS41 KBTV 180349 AAB
TAFMSS
TAF AMD
KMSS 180349Z 1804/1824 25005KT 6SM BR VCSH SCT008 OVC015
      TEMPO 1804/1805 3SM -SHRASN BR OVC008
     FM180500 25007KT 3SM -SHSN BR OVC008
      TEMPO 1806/1810 2SM -SN BR
     FM181500 29010KT P6SM VCSH OVC015=

USA.gov is the U.S. government's official web portal to all federal, state and local government web resources and services.